sensor_id;sensor_type;location;lat;lon;timestamp;pressure;altitude;pressure_sealevel;temperature;humidity
63554;BME280;49699;48.072;7.800;2023-02-12T00:00:33;101453.59;;;-1.60;82.22
63554;BME280;49699;48.072;7.800;2023-02-12T00:02:58;101449.31;;;-1.63;81.98
63554;BME280;49699;48.072;7.800;2023-02-12T00:05:23;101454.41;;;-1.63;82.35
63554;BME280;49699;48.072;7.800;2023-02-12T00:07:49;101459.44;;;-1.66;81.93
63554;BME280;49699;48.072;7.800;2023-02-12T00:10:14;101456.03;;;-1.66;82.09
63554;BME280;49699;48.072;7.800;2023-02-12T00:12:39;101453.47;;;-1.66;82.36
63554;BME280;49699;48.072;7.800;2023-02-12T00:15:05;101461.13;;;-1.66;82.16
63554;BME280;49699;48.072;7.800;2023-02-12T00:17:30;101456.03;;;-1.66;82.37
63554;BME280;49699;48.072;7.800;2023-02-12T00:19:56;101447.47;;;-1.68;82.49
63554;BME280;49699;48.072;7.800;2023-02-12T00:22:21;101440.63;;;-1.69;82.59
63554;BME280;49699;48.072;7.800;2023-02-12T00:24:46;101436.31;;;-1.72;82.31
63554;BME280;49699;48.072;7.800;2023-02-12T00:27:11;101454.16;;;-1.73;82.25
63554;BME280;49699;48.072;7.800;2023-02-12T00:29:37;101442.19;;;-1.75;82.56
63554;BME280;49699;48.072;7.800;2023-02-12T00:32:03;101439.56;;;-1.78;82.45
63554;BME280;49699;48.072;7.800;2023-02-12T00:34:29;101445.50;;;-1.79;82.54
63554;BME280;49699;48.072;7.800;2023-02-12T00:36:54;101451.47;;;-1.78;82.36
63554;BME280;49699;48.072;7.800;2023-02-12T00:39:19;101454.00;;;-1.80;82.62
63554;BME280;49699;48.072;7.800;2023-02-12T00:41:44;101459.88;;;-1.84;82.51
63554;BME280;49699;48.072;7.800;2023-02-12T00:44:10;101458.97;;;-1.86;82.82
63554;BME280;49699;48.072;7.800;2023-02-12T00:46:35;101449.50;;;-1.90;82.86
63554;BME280;49699;48.072;7.800;2023-02-12T00:49:00;101451.19;;;-1.90;82.57
63554;BME280;49699;48.072;7.800;2023-02-12T00:51:26;101456.28;;;-1.90;82.89
63554;BME280;49699;48.072;7.800;2023-02-12T00:53:51;101456.19;;;-1.93;82.97
63554;BME280;49699;48.072;7.800;2023-02-12T00:56:16;101453.50;;;-1.99;82.59
63554;BME280;49699;48.072;7.800;2023-02-12T00:58:42;101445.72;;;-2.04;82.73
63554;BME280;49699;48.072;7.800;2023-02-12T01:01:07;101442.31;;;-2.04;82.86
63554;BME280;49699;48.072;7.800;2023-02-12T01:03:34;101445.69;;;-2.05;82.96
63554;BME280;49699;48.072;7.800;2023-02-12T01:05:59;101436.41;;;-2.03;82.93
63554;BME280;49699;48.072;7.800;2023-02-12T01:08:24;101437.31;;;-2.01;83.14
63554;BME280;49699;48.072;7.800;2023-02-12T01:10:54;101447.59;;;-1.98;82.71
63554;BME280;49699;48.072;7.800;2023-02-12T01:13:19;101444.19;;;-1.99;82.82
63554;BME280;49699;48.072;7.800;2023-02-12T01:15:45;101451.00;;;-1.98;82.80
63554;BME280;49699;48.072;7.800;2023-02-12T01:18:10;101448.44;;;-1.98;82.96
63554;BME280;49699;48.072;7.800;2023-02-12T01:20:38;101446.69;;;-2.00;82.96
63554;BME280;49699;48.072;7.800;2023-02-12T01:23:03;101452.56;;;-2.03;82.98
63554;BME280;49699;48.072;7.800;2023-02-12T01:25:31;101449.97;;;-2.04;82.75
63554;BME280;49699;48.072;7.800;2023-02-12T01:27:56;101448.97;;;-2.10;83.03
63554;BME280;49699;48.072;7.800;2023-02-12T01:30:21;101445.44;;;-2.15;83.01
63554;BME280;49699;48.072;7.800;2023-02-12T01:32:49;101442.75;;;-2.21;83.13
63554;BME280;49699;48.072;7.800;2023-02-12T01:35:14;101443.53;;;-2.23;83.03
63554;BME280;49699;48.072;7.800;2023-02-12T01:37:40;101447.72;;;-2.25;83.35
63554;BME280;49699;48.072;7.800;2023-02-12T01:40:06;101440.06;;;-2.25;83.14
63554;BME280;49699;48.072;7.800;2023-02-12T01:42:32;101445.19;;;-2.25;83.66
63554;BME280;49699;48.072;7.800;2023-02-12T01:45:22;101441.81;;;-2.24;83.40
63554;BME280;49699;48.072;7.800;2023-02-12T01:47:54;101449.41;;;-2.26;83.16
63554;BME280;49699;48.072;7.800;2023-02-12T01:50:21;101446.88;;;-2.26;83.28
63554;BME280;49699;48.072;7.800;2023-02-12T01:52:47;101448.53;;;-2.26;83.58
63554;BME280;49699;48.072;7.800;2023-02-12T01:55:14;101448.53;;;-2.26;83.48
63554;BME280;49699;48.072;7.800;2023-02-12T01:57:40;101438.34;;;-2.26;83.56
63554;BME280;49699;48.072;7.800;2023-02-12T02:00:08;101437.47;;;-2.27;83.23
63554;BME280;49699;48.072;7.800;2023-02-12T02:02:39;101435.72;;;-2.29;83.64
63554;BME280;49699;48.072;7.800;2023-02-12T02:05:07;101436.44;;;-2.35;83.50
63554;BME280;49699;48.072;7.800;2023-02-12T02:07:32;101432.06;;;-2.39;83.60
63554;BME280;49699;48.072;7.800;2023-02-12T02:09:57;101435.44;;;-2.40;83.81
63554;BME280;49699;48.072;7.800;2023-02-12T02:12:26;101432.84;;;-2.41;83.67
63554;BME280;49699;48.072;7.800;2023-02-12T02:15:11;101434.44;;;-2.45;83.64
63554;BME280;49699;48.072;7.800;2023-02-12T02:17:49;101431.84;;;-2.47;83.86
63554;BME280;49699;48.072;7.800;2023-02-12T02:22:43;101437.84;;;-2.45;83.95
63554;BME280;49699;48.072;7.800;2023-02-12T02:33:31;101442.69;;;-2.55;84.05
63554;BME280;49699;48.072;7.800;2023-02-12T02:36:12;101439.22;;;-2.57;83.71
63554;BME280;49699;48.072;7.800;2023-02-12T02:38:47;101435.81;;;-2.58;84.11
63554;BME280;49699;48.072;7.800;2023-02-12T02:43:43;101432.44;;;-2.57;83.97
63554;BME280;49699;48.072;7.800;2023-02-12T02:46:31;101443.50;;;-2.56;84.07
63554;BME280;49699;48.072;7.800;2023-02-12T02:48:59;101429.94;;;-2.55;83.95
63554;BME280;49699;48.072;7.800;2023-02-12T02:51:39;101438.44;;;-2.55;83.64
63554;BME280;49699;48.072;7.800;2023-02-12T02:54:07;101446.00;;;-2.58;84.11
63554;BME280;49699;48.072;7.800;2023-02-12T02:56:34;101426.44;;;-2.59;83.84
63554;BME280;49699;48.072;7.800;2023-02-12T02:59:05;101432.41;;;-2.58;83.82
63554;BME280;49699;48.072;7.800;2023-02-12T03:01:33;101434.94;;;-2.58;83.71
63554;BME280;49699;48.072;7.800;2023-02-12T03:06:31;101437.59;;;-2.55;83.90
63554;BME280;49699;48.072;7.800;2023-02-12T03:09:03;101440.19;;;-2.54;83.49
63554;BME280;49699;48.072;7.800;2023-02-12T03:11:31;101425.75;;;-2.53;83.57
63554;BME280;49699;48.072;7.800;2023-02-12T03:14:08;101436.72;;;-2.56;83.67
63554;BME280;49699;48.072;7.800;2023-02-12T03:16:42;101428.03;;;-2.62;84.21
63554;BME280;49699;48.072;7.800;2023-02-12T03:21:56;101437.16;;;-2.70;84.23
63554;BME280;49699;48.072;7.800;2023-02-12T03:24:25;101431.97;;;-2.73;84.43
63554;BME280;49699;48.072;7.800;2023-02-12T03:27:02;101425.97;;;-2.75;84.16
63554;BME280;49699;48.072;7.800;2023-02-12T03:29:29;101434.44;;;-2.76;84.29
63554;BME280;49699;48.072;7.800;2023-02-12T03:37:26;101424.06;;;-2.83;84.22
63554;BME280;49699;48.072;7.800;2023-02-12T03:40:14;101429.09;;;-2.84;84.50
63554;BME280;49699;48.072;7.800;2023-02-12T03:47:45;101435.97;;;-2.82;84.19
63554;BME280;49699;48.072;7.800;2023-02-12T03:50:14;101441.06;;;-2.82;84.16
63554;BME280;49699;48.072;7.800;2023-02-12T03:52:41;101434.19;;;-2.84;84.14
63554;BME280;49699;48.072;7.800;2023-02-12T03:55:07;101434.16;;;-2.86;84.22
63554;BME280;49699;48.072;7.800;2023-02-12T03:57:36;101430.72;;;-2.88;84.23
63554;BME280;49699;48.072;7.800;2023-02-12T04:00:07;101434.00;;;-2.92;84.53
63554;BME280;49699;48.072;7.800;2023-02-12T04:02:39;101434.78;;;-2.94;84.38
63554;BME280;49699;48.072;7.800;2023-02-12T04:05:05;101438.19;;;-2.94;84.63
63554;BME280;49699;48.072;7.800;2023-02-12T04:07:31;101440.78;;;-2.92;84.19
63554;BME280;49699;48.072;7.800;2023-02-12T04:09:57;101433.91;;;-2.95;84.40
63554;BME280;49699;48.072;7.800;2023-02-12T04:18:41;101447.31;;;-3.00;84.50
63554;BME280;49699;48.072;7.800;2023-02-12T04:28:36;101444.88;;;-2.97;84.16
63554;BME280;49699;48.072;7.800;2023-02-12T04:31:19;101438.03;;;-2.98;84.28
63554;BME280;49699;48.072;7.800;2023-02-12T04:33:48;101442.28;;;-2.99;84.50
63554;BME280;49699;48.072;7.800;2023-02-12T04:36:19;101448.97;;;-3.02;84.22
63554;BME280;49699;48.072;7.800;2023-02-12T04:38:47;101448.03;;;-3.04;84.20
63554;BME280;49699;48.072;7.800;2023-02-12T04:41:15;101452.25;;;-3.06;84.32
63554;BME280;49699;48.072;7.800;2023-02-12T04:43:40;101441.16;;;-3.08;84.62
63554;BME280;49699;48.072;7.800;2023-02-12T04:46:06;101452.16;;;-3.09;84.52
63554;BME280;49699;48.072;7.800;2023-02-12T04:48:32;101453.03;;;-3.09;84.39
63554;BME280;49699;48.072;7.800;2023-02-12T04:50:58;101449.63;;;-3.09;84.46
63554;BME280;49699;48.072;7.800;2023-02-12T04:53:24;101452.16;;;-3.09;84.38
63554;BME280;49699;48.072;7.800;2023-02-12T04:55:49;101443.66;;;-3.10;84.39
63554;BME280;49699;48.072;7.800;2023-02-12T04:58:15;101444.53;;;-3.09;84.32
63554;BME280;49699;48.072;7.800;2023-02-12T05:00:40;101443.59;;;-3.11;84.26
63554;BME280;49699;48.072;7.800;2023-02-12T05:03:05;101442.75;;;-3.12;84.64
63554;BME280;49699;48.072;7.800;2023-02-12T05:05:31;101442.75;;;-3.12;84.50
63554;BME280;49699;48.072;7.800;2023-02-12T05:07:56;101435.88;;;-3.15;84.22
63554;BME280;49699;48.072;7.800;2023-02-12T05:10:21;101439.19;;;-3.17;84.54
63554;BME280;49699;48.072;7.800;2023-02-12T05:12:47;101440.00;;;-3.18;84.60
63554;BME280;49699;48.072;7.800;2023-02-12T05:15:12;101428.19;;;-3.16;84.45
63554;BME280;49699;48.072;7.800;2023-02-12T05:17:37;101425.63;;;-3.16;84.57
63554;BME280;49699;48.072;7.800;2023-02-12T05:20:03;101424.78;;;-3.17;84.48
63554;BME280;49699;48.072;7.800;2023-02-12T05:22:28;101437.50;;;-3.17;84.19
63554;BME280;49699;48.072;7.800;2023-02-12T05:24:54;101435.78;;;-3.18;84.27
63554;BME280;49699;48.072;7.800;2023-02-12T05:27:19;101437.47;;;-3.18;84.17
63554;BME280;49699;48.072;7.800;2023-02-12T05:29:44;101437.47;;;-3.18;84.46
63554;BME280;49699;48.072;7.800;2023-02-12T05:32:10;101430.59;;;-3.21;84.38
63554;BME280;49699;48.072;7.800;2023-02-12T05:34:35;101443.25;;;-3.24;84.53
63554;BME280;49699;48.072;7.800;2023-02-12T05:37:01;101430.44;;;-3.27;84.37
63554;BME280;49699;48.072;7.800;2023-02-12T05:39:26;101424.38;;;-3.30;84.61
63554;BME280;49699;48.072;7.800;2023-02-12T05:41:51;101418.41;;;-3.31;84.63
63554;BME280;49699;48.072;7.800;2023-02-12T05:44:16;101426.06;;;-3.31;84.66
63554;BME280;49699;48.072;7.800;2023-02-12T05:46:42;101420.09;;;-3.31;84.44
63554;BME280;49699;48.072;7.800;2023-02-12T05:49:08;101424.38;;;-3.30;84.46
63554;BME280;49699;48.072;7.800;2023-02-12T05:51:33;101425.19;;;-3.31;84.81
63554;BME280;49699;48.072;7.800;2023-02-12T05:54:00;101427.69;;;-3.33;84.69
63554;BME280;49699;48.072;7.800;2023-02-12T05:56:28;101427.59;;;-3.36;84.58
63554;BME280;49699;48.072;7.800;2023-02-12T05:58:58;101431.72;;;-3.39;84.30
63554;BME280;49699;48.072;7.800;2023-02-12T06:01:27;101429.91;;;-3.43;84.41
63554;BME280;49699;48.072;7.800;2023-02-12T06:03:53;101431.53;;;-3.45;84.65
63554;BME280;49699;48.072;7.800;2023-02-12T06:06:19;101433.19;;;-3.47;84.54
63554;BME280;49699;48.072;7.800;2023-02-12T06:08:47;101429.78;;;-3.48;84.85
63554;BME280;49699;48.072;7.800;2023-02-12T06:11:13;101422.94;;;-3.49;84.60
63554;BME280;49699;48.072;7.800;2023-02-12T06:13:39;101430.59;;;-3.49;84.73
63554;BME280;49699;48.072;7.800;2023-02-12T06:16:04;101430.47;;;-3.52;84.57
63554;BME280;49699;48.072;7.800;2023-02-12T06:18:30;101422.84;;;-3.52;84.97
63554;BME280;49699;48.072;7.800;2023-02-12T06:20:55;101429.63;;;-3.53;84.87
63554;BME280;49699;48.072;7.800;2023-02-12T06:23:21;101434.00;;;-3.48;84.75
63554;BME280;49699;48.072;7.800;2023-02-12T06:25:47;101433.91;;;-3.52;84.54
63554;BME280;49699;48.072;7.800;2023-02-12T06:28:12;101427.06;;;-3.53;84.46
63554;BME280;49699;48.072;7.800;2023-02-12T06:30:38;101421.97;;;-3.53;84.33
63554;BME280;49699;48.072;7.800;2023-02-12T06:33:03;101418.66;;;-3.50;84.59
63554;BME280;49699;48.072;7.800;2023-02-12T06:35:28;101426.31;;;-3.50;84.36
63554;BME280;49699;48.072;7.800;2023-02-12T06:37:53;101431.44;;;-3.48;84.61
63554;BME280;49699;48.072;7.800;2023-02-12T06:40:19;101432.31;;;-3.48;84.66
63554;BME280;49699;48.072;7.800;2023-02-12T06:42:44;101427.13;;;-3.51;84.29
63554;BME280;49699;48.072;7.800;2023-02-12T06:45:09;101432.97;;;-3.54;84.28
63554;BME280;49699;48.072;7.800;2023-02-12T06:47:34;101427.06;;;-3.53;84.74
63554;BME280;49699;48.072;7.800;2023-02-12T06:50:00;101430.47;;;-3.52;84.43
63554;BME280;49699;48.072;7.800;2023-02-12T06:52:26;101429.63;;;-3.53;84.32
63554;BME280;49699;48.072;7.800;2023-02-12T06:54:51;101435.47;;;-3.55;84.40
63554;BME280;49699;48.072;7.800;2023-02-12T06:57:16;101435.38;;;-3.58;84.57
63554;BME280;49699;48.072;7.800;2023-02-12T06:59:41;101437.03;;;-3.60;84.59
63554;BME280;49699;48.072;7.800;2023-02-12T07:02:08;101438.66;;;-3.62;84.70
63554;BME280;49699;48.072;7.800;2023-02-12T07:04:33;101435.25;;;-3.63;84.62
63554;BME280;49699;48.072;7.800;2023-02-12T07:06:58;101431.84;;;-3.63;84.78
63554;BME280;49699;48.072;7.800;2023-02-12T07:09:24;101427.66;;;-3.61;84.65
63554;BME280;49699;48.072;7.800;2023-02-12T07:11:49;101432.00;;;-3.57;84.49
63554;BME280;49699;48.072;7.800;2023-02-12T07:19:46;101445.34;;;-3.37;84.04
63554;BME280;49699;48.072;7.800;2023-02-12T07:22:12;101445.56;;;-3.31;83.84
63554;BME280;49699;48.072;7.800;2023-02-12T07:24:37;101443.97;;;-3.28;83.65
63554;BME280;49699;48.072;7.800;2023-02-12T07:27:03;101445.81;;;-3.22;83.61
63554;BME280;49699;48.072;7.800;2023-02-12T07:29:28;101445.97;;;-3.18;83.50
63554;BME280;49699;48.072;7.800;2023-02-12T07:31:54;101443.59;;;-3.11;83.30
63554;BME280;49699;48.072;7.800;2023-02-12T07:34:19;101446.34;;;-3.05;83.21
63554;BME280;49699;48.072;7.800;2023-02-12T07:36:44;101448.13;;;-3.01;83.28
63554;BME280;49699;48.072;7.800;2023-02-12T07:39:10;101455.16;;;-2.94;82.82
63554;BME280;49699;48.072;7.800;2023-02-12T07:41:36;101454.53;;;-2.87;82.98
63554;BME280;49699;48.072;7.800;2023-02-12T07:44:03;101455.59;;;-2.79;82.66
63554;BME280;49699;48.072;7.800;2023-02-12T07:46:34;101464.41;;;-2.68;82.52
63554;BME280;49699;48.072;7.800;2023-02-12T07:49:01;101455.38;;;-2.57;81.99
63554;BME280;49699;48.072;7.800;2023-02-12T07:51:28;101459.06;;;-2.46;81.94
63554;BME280;49699;48.072;7.800;2023-02-12T07:53:54;101451.78;;;-2.32;81.18
63554;BME280;49699;48.072;7.800;2023-02-12T07:56:20;101453.91;;;-2.17;80.91
63554;BME280;49699;48.072;7.800;2023-02-12T07:58:46;101449.97;;;-2.04;80.95
63554;BME280;49699;48.072;7.800;2023-02-12T08:01:22;101453.78;;;-1.89;80.36
63554;BME280;49699;48.072;7.800;2023-02-12T08:03:48;101452.53;;;-1.70;80.09
63554;BME280;49699;48.072;7.800;2023-02-12T08:06:24;101447.13;;;-1.48;79.44
63554;BME280;49699;48.072;7.800;2023-02-12T08:08:50;101448.50;;;-1.23;78.52
63554;BME280;49699;48.072;7.800;2023-02-12T08:11:15;101457.56;;;-0.99;77.83
63554;BME280;49699;48.072;7.800;2023-02-12T08:13:42;101455.50;;;-0.77;77.56
63554;BME280;49699;48.072;7.800;2023-02-12T08:16:09;101449.97;;;-0.54;77.11
63554;BME280;49699;48.072;7.800;2023-02-12T08:18:35;101452.94;;;-0.31;76.17
63554;BME280;49699;48.072;7.800;2023-02-12T08:21:01;101450.78;;;-0.10;75.81
63554;BME280;49699;48.072;7.800;2023-02-12T08:23:26;101451.09;;;0.08;75.58
63554;BME280;49699;48.072;7.800;2023-02-12T08:25:52;101453.91;;;0.23;75.13
63554;BME280;49699;48.072;7.800;2023-02-12T08:28:17;101445.63;;;0.40;74.77
63554;BME280;49699;48.072;7.800;2023-02-12T08:30:42;101461.38;;;0.62;74.09
63554;BME280;49699;48.072;7.800;2023-02-12T08:33:08;101449.75;;;0.86;73.49
63554;BME280;49699;48.072;7.800;2023-02-12T08:35:33;101449.19;;;1.08;72.91
63554;BME280;49699;48.072;7.800;2023-02-12T08:37:58;101451.13;;;1.26;72.96
63554;BME280;49699;48.072;7.800;2023-02-12T08:40:23;101446.22;;;1.44;72.34
63554;BME280;49699;48.072;7.800;2023-02-12T08:42:49;101442.16;;;1.64;72.01
63554;BME280;49699;48.072;7.800;2023-02-12T08:45:14;101447.50;;;1.84;71.44
63554;BME280;49699;48.072;7.800;2023-02-12T08:47:39;101438.28;;;2.03;70.96
63554;BME280;49699;48.072;7.800;2023-02-12T08:50:04;101432.41;;;2.19;70.63
63554;BME280;49699;48.072;7.800;2023-02-12T08:52:30;101438.53;;;2.33;70.66
63554;BME280;49699;48.072;7.800;2023-02-12T08:54:55;101431.78;;;2.46;70.49
63554;BME280;49699;48.072;7.800;2023-02-12T08:57:20;101431.88;;;2.61;70.04
63554;BME280;49699;48.072;7.800;2023-02-12T08:59:47;101428.56;;;2.77;69.98
63554;BME280;49699;48.072;7.800;2023-02-12T09:02:12;101431.25;;;3.00;69.70
63554;BME280;49699;48.072;7.800;2023-02-12T09:04:37;101422.78;;;3.21;68.93
63554;BME280;49699;48.072;7.800;2023-02-12T09:07:07;101428.84;;;3.35;68.68
63554;BME280;49699;48.072;7.800;2023-02-12T09:09:39;101426.34;;;3.58;68.07
63554;BME280;49699;48.072;7.800;2023-02-12T09:12:04;101414.34;;;3.81;67.65
63554;BME280;49699;48.072;7.800;2023-02-12T09:14:29;101424.69;;;4.00;66.86
63554;BME280;49699;48.072;7.800;2023-02-12T09:16:55;101421.25;;;4.13;66.81
63554;BME280;49699;48.072;7.800;2023-02-12T09:19:21;101416.09;;;4.27;66.29
63554;BME280;49699;48.072;7.800;2023-02-12T09:21:49;101416.94;;;4.36;65.97
63554;BME280;49699;48.072;7.800;2023-02-12T09:24:14;101416.97;;;4.44;65.51
63554;BME280;49699;48.072;7.800;2023-02-12T09:26:39;101414.34;;;4.53;65.88
63554;BME280;49699;48.072;7.800;2023-02-12T09:29:05;101413.50;;;4.62;65.36
63554;BME280;49699;48.072;7.800;2023-02-12T09:31:31;101416.03;;;4.68;65.16
63554;BME280;49699;48.072;7.800;2023-02-12T09:33:57;101411.75;;;4.76;64.86
63554;BME280;49699;48.072;7.800;2023-02-12T09:36:23;101420.28;;;4.93;64.53
63554;BME280;49699;48.072;7.800;2023-02-12T09:38:48;101410.75;;;5.13;64.14
63554;BME280;49699;48.072;7.800;2023-02-12T09:41:21;101402.09;;;5.20;63.89
63554;BME280;49699;48.072;7.800;2023-02-12T09:43:59;101410.75;;;5.15;64.29
63554;BME280;49699;48.072;7.800;2023-02-12T09:46:36;101409.91;;;5.16;64.06
63554;BME280;49699;48.072;7.800;2023-02-12T09:49:09;101412.44;;;5.20;64.09
63554;BME280;49699;48.072;7.800;2023-02-12T09:51:36;101409.81;;;5.37;63.65
63554;BME280;49699;48.072;7.800;2023-02-12T09:54:03;101396.81;;;5.52;63.74
63554;BME280;49699;48.072;7.800;2023-02-12T09:56:29;101396.72;;;5.66;62.87
63554;BME280;49699;48.072;7.800;2023-02-12T09:58:58;101402.63;;;5.85;62.69
63554;BME280;49699;48.072;7.800;2023-02-12T10:01:27;101407.72;;;5.99;62.17
63554;BME280;49699;48.072;7.800;2023-02-12T10:03:52;101403.28;;;6.13;61.91
63554;BME280;49699;48.072;7.800;2023-02-12T10:06:20;101408.31;;;6.31;61.49
63554;BME280;49699;48.072;7.800;2023-02-12T10:08:50;101402.09;;;6.50;61.08
63554;BME280;49699;48.072;7.800;2023-02-12T10:11:23;101395.13;;;6.60;60.50
63554;BME280;49699;48.072;7.800;2023-02-12T10:16:33;101398.38;;;6.79;60.19
63554;BME280;49699;48.072;7.800;2023-02-12T10:19:11;101393.09;;;6.85;60.11
63554;BME280;49699;48.072;7.800;2023-02-12T10:21:42;101401.66;;;6.91;59.69
63554;BME280;49699;48.072;7.800;2023-02-12T10:26:37;101397.97;;;7.12;59.55
63554;BME280;49699;48.072;7.800;2023-02-12T10:29:11;101398.69;;;7.23;58.98
63554;BME280;49699;48.072;7.800;2023-02-12T10:31:39;101400.38;;;7.27;58.91
63554;BME280;49699;48.072;7.800;2023-02-12T10:34:14;101398.44;;;7.42;58.68
63554;BME280;49699;48.072;7.800;2023-02-12T10:36:41;101397.25;;;7.65;58.03
63554;BME280;49699;48.072;7.800;2023-02-12T10:41:38;101387.19;;;8.01;57.60
63554;BME280;49699;48.072;7.800;2023-02-12T10:44:04;101397.34;;;8.15;57.40
63554;BME280;49699;48.072;7.800;2023-02-12T10:46:30;101386.97;;;8.15;57.00
63554;BME280;49699;48.072;7.800;2023-02-12T10:48:56;101383.31;;;8.25;56.86
63554;BME280;49699;48.072;7.800;2023-02-12T10:53:49;101387.78;;;8.18;57.34
63554;BME280;49699;48.072;7.800;2023-02-12T10:56:16;101384.41;;;8.13;57.27
63554;BME280;49699;48.072;7.800;2023-02-12T11:01:19;101379.47;;;7.98;57.57
63554;BME280;49699;48.072;7.800;2023-02-12T11:03:45;101374.22;;;8.02;57.76
63554;BME280;49699;48.072;7.800;2023-02-12T11:06:18;101370.63;;;8.10;57.93
63554;BME280;49699;48.072;7.800;2023-02-12T11:08:44;101364.41;;;8.20;57.76
63554;BME280;49699;48.072;7.800;2023-02-12T11:11:11;101358.19;;;8.28;57.54
63554;BME280;49699;48.072;7.800;2023-02-12T11:13:38;101360.47;;;8.48;57.24
63554;BME280;49699;48.072;7.800;2023-02-12T11:16:04;101353.38;;;8.58;57.07
63554;BME280;49699;48.072;7.800;2023-02-12T11:18:31;101355.72;;;8.70;56.94
63554;BME280;49699;48.072;7.800;2023-02-12T11:20:59;101344.19;;;8.85;56.91
63554;BME280;49699;48.072;7.800;2023-02-12T11:23:29;101343.03;;;8.98;56.64
63554;BME280;49699;48.072;7.800;2023-02-12T11:28:20;101333.28;;;9.11;56.78
63554;BME280;49699;48.072;7.800;2023-02-12T11:30:49;101332.34;;;9.13;56.20
63554;BME280;49699;48.072;7.800;2023-02-12T11:33:29;101323.78;;;9.10;56.69
63554;BME280;49699;48.072;7.800;2023-02-12T11:35:56;101322.09;;;9.07;56.31
63554;BME280;49699;48.072;7.800;2023-02-12T11:38:27;101325.34;;;9.15;56.71
63554;BME280;49699;48.072;7.800;2023-02-12T11:40:54;101328.50;;;9.31;55.99
63554;BME280;49699;48.072;7.800;2023-02-12T11:43:20;101321.34;;;9.40;55.77
63554;BME280;49699;48.072;7.800;2023-02-12T11:45:48;101318.56;;;9.48;55.50
63554;BME280;49699;48.072;7.800;2023-02-12T11:48:21;101309.69;;;9.57;55.81
63554;BME280;49699;48.072;7.800;2023-02-12T11:50:48;101311.47;;;9.55;55.29
63554;BME280;49699;48.072;7.800;2023-02-12T11:53:19;101307.88;;;9.60;55.46
63554;BME280;49699;48.072;7.800;2023-02-12T11:55:52;101305.88;;;9.71;55.65
63554;BME280;49699;48.072;7.800;2023-02-12T11:58:21;101296.09;;;9.81;55.43
63554;BME280;49699;48.072;7.800;2023-02-12T12:08:45;101293.31;;;9.89;54.97
63554;BME280;49699;48.072;7.800;2023-02-12T12:11:17;101289.78;;;9.91;55.08
63554;BME280;49699;48.072;7.800;2023-02-12T12:19:19;101288.50;;;10.06;54.88
63554;BME280;49699;48.072;7.800;2023-02-12T12:24:42;101285.38;;;9.93;55.03
63554;BME280;49699;48.072;7.800;2023-02-12T12:27:12;101281.16;;;9.89;55.33
63554;BME280;49699;48.072;7.800;2023-02-12T12:29:59;101270.06;;;9.83;55.57
63554;BME280;49699;48.072;7.800;2023-02-12T12:32:30;101271.84;;;9.81;55.85
63554;BME280;49699;48.072;7.800;2023-02-12T12:34:58;101271.22;;;9.71;56.24
63554;BME280;49699;48.072;7.800;2023-02-12T12:42:58;101262.09;;;9.55;56.82
63554;BME280;49699;48.072;7.800;2023-02-12T12:56:00;101261.19;;;9.56;57.88
63554;BME280;49699;48.072;7.800;2023-02-12T13:13:45;101242.56;;;9.38;60.15
63554;BME280;49699;48.072;7.800;2023-02-12T13:19:05;101229.63;;;9.35;59.89
63554;BME280;49699;48.072;7.800;2023-02-12T13:21:36;101228.66;;;9.39;60.19
63554;BME280;49699;48.072;7.800;2023-02-12T13:29:07;101227.47;;;9.53;60.15
63554;BME280;49699;48.072;7.800;2023-02-12T13:31:42;101227.47;;;9.53;59.96
63554;BME280;49699;48.072;7.800;2023-02-12T13:34:10;101217.81;;;9.58;59.92
63554;BME280;49699;48.072;7.800;2023-02-12T13:36:38;101222.94;;;9.61;60.50
63554;BME280;49699;48.072;7.800;2023-02-12T13:41:32;101215.06;;;9.64;60.18
63554;BME280;49699;48.072;7.800;2023-02-12T13:48:57;101214.81;;;9.73;60.35
63554;BME280;49699;48.072;7.800;2023-02-12T13:51:29;101205.13;;;9.80;60.32
63554;BME280;49699;48.072;7.800;2023-02-12T13:58:56;101183.72;;;10.02;60.57
63554;BME280;49699;48.072;7.800;2023-02-12T14:01:34;101187.06;;;10.06;60.26
63554;BME280;49699;48.072;7.800;2023-02-12T14:09:31;101164.81;;;10.27;60.30
63554;BME280;49699;48.072;7.800;2023-02-12T14:11:59;101168.13;;;10.33;60.52
63554;BME280;49699;48.072;7.800;2023-02-12T14:14:33;101165.28;;;10.41;60.32
63554;BME280;49699;48.072;7.800;2023-02-12T14:25:12;101167.63;;;10.78;59.39
63554;BME280;49699;48.072;7.800;2023-02-12T14:27:47;101167.44;;;10.84;59.16
63554;BME280;49699;48.072;7.800;2023-02-12T14:30:23;101163.88;;;10.87;59.25
63554;BME280;49699;48.072;7.800;2023-02-12T14:37:51;101142.78;;;10.94;58.93
63554;BME280;49699;48.072;7.800;2023-02-12T14:43:01;101146.78;;;11.06;58.62
63554;BME280;49699;48.072;7.800;2023-02-12T14:45:36;101147.53;;;11.09;58.38
63554;BME280;49699;48.072;7.800;2023-02-12T14:48:02;101157.88;;;11.11;58.48
63554;BME280;49699;48.072;7.800;2023-02-12T14:50:30;101150.00;;;11.12;58.58
63554;BME280;49699;48.072;7.800;2023-02-12T14:53:10;101145.59;;;11.14;58.58
63554;BME280;49699;48.072;7.800;2023-02-12T14:55:37;101145.56;;;11.16;58.52
63554;BME280;49699;48.072;7.800;2023-02-12T14:58:13;101148.03;;;11.21;58.34
63554;BME280;49699;48.072;7.800;2023-02-12T15:00:40;101148.69;;;11.27;58.48
63554;BME280;49699;48.072;7.800;2023-02-12T15:05:41;101145.81;;;11.35;58.28
63554;BME280;49699;48.072;7.800;2023-02-12T15:08:12;101146.56;;;11.38;57.97
63554;BME280;49699;48.072;7.800;2023-02-12T15:10:45;101141.19;;;11.43;57.99
63554;BME280;49699;48.072;7.800;2023-02-12T15:18:44;101140.25;;;11.45;57.87
63554;BME280;49699;48.072;7.800;2023-02-12T15:21:18;101149.91;;;11.42;57.89
63554;BME280;49699;48.072;7.800;2023-02-12T15:23:45;101153.47;;;11.39;57.82
63554;BME280;49699;48.072;7.800;2023-02-12T15:26:12;101163.06;;;11.39;58.07
63554;BME280;49699;48.072;7.800;2023-02-12T15:28:38;101157.88;;;11.37;58.06
63554;BME280;49699;48.072;7.800;2023-02-12T15:31:04;101161.41;;;11.36;58.04
63554;BME280;49699;48.072;7.800;2023-02-12T15:33:34;101156.22;;;11.35;58.11
63554;BME280;49699;48.072;7.800;2023-02-12T15:36:01;101153.66;;;11.33;58.32